x

Venice, Fl (venf1) Weather Station

3:00am - Wed 17th Jan 2018 All times are EST. -5 hours from GMT.

  • Wind
    6mph, 7mph gusts
  • Sea Temp 60°f
  • Air Temp 54°f
  • Sea Pressure 1023.4mb
  • Venice, Fl
  • Venice, Fl

More Historic Weather Station data

Upgrade to MSW Pro to gain access to the past 30 days of data for over 8000 Wavebouys and Weather Stations around the globe.

Join

Comparision Forecast

View Surf forecast
   
Wed 01/17 3:00am 6 7 mph 1023.4mb 60f 54f
2:00am 6 8 mph 1023.9mb 60f 54f
1:00am 7 8 mph 1024.7mb 60f 55f
12:00am 8 10 mph 1025.3mb 60f 57f
Tue 01/16 11:00pm 6 6 mph 1025.6mb 60f 58f
10:00pm 6 7 mph 1025.5mb 60f 59f
9:00pm 9 11 mph 1025.3mb 60f 62f
8:00pm 9 11 mph 1025.1mb 60f 63f
7:00pm 9 10 mph 1024.6mb 61f 64f
6:00pm 13 14 mph 1024.5mb 61f 61f
5:00pm 13 13 mph 1024.4mb 61f 62f
4:00pm 11 14 mph 1024.8mb 61f 62f
3:00pm 14 14 mph 1024.5mb 60f 62f
2:00pm 13 14 mph 1025.1mb 60f 62f
1:00pm 5 6 mph 1026.2mb 60f 69f
12:00pm 10 13 mph 1027.2mb 60f 67f
11:00am 10 13 mph 1028mb 60f 65f
10:00am 6 8 mph 1028.3mb 59f 60f
9:00am 3 7 mph 1028.2mb 59f 56f
8:00am 13 17 mph 1026.9mb 59f 51f
7:00am 11 16 mph 1026.7mb 59f 50f
6:00am 14 16 mph 1026.4mb 59f 51f
5:00am 14 18 mph 1026.1mb 59f 51f
4:00am 13 17 mph 1025.8mb 59f 51f
3:00am 11 17 mph 1025.7mb 59f 50f
2:00am 15 18 mph 1026.2mb 60f 51f
1:00am 14 18 mph 1026.7mb 60f 52f
12:00am 13 15 mph 1027mb 60f 54f
Mon 01/15 10:00pm 10 11 mph 1027.2mb 60f 57f
6:00pm 8 9 mph 1025.3mb 60f 65f
5:00pm 10 14 mph 1024.6mb 60f 67f
4:00pm 13 15 mph 1024.3mb 61f 67f
3:00pm 14 17 mph 1024.3mb 61f 67f
2:00pm 8 11 mph 1024.8mb 61f 66f
1:00pm 11 14 mph 1025.8mb 60f 64f
12:00pm 14 18 mph 1027.2mb 60f 62f
11:00am 17 21 mph 1028.1mb 60f 59f
10:00am 14 17 mph 1028.1mb 59f 55f
9:00am 17 23 mph 1027.6mb 59f 50f
8:00am 16 22 mph 1027.1mb 59f 46f
7:00am 13 18 mph 1026.3mb 59f 45f
6:00am 16 20 mph 1026.1mb 59f 46f
5:00am 13 16 mph 1026mb 59f 46f
4:00am 13 15 mph 1026.1mb 59f 46f
3:00am 13 15 mph 1026.1mb 60f 47f
2:00am 10 14 mph 1026.6mb 60f 48f
1:00am 11 14 mph 1026.7mb 60f 49f
12:00am 8 11 mph 1027.2mb 60f 50f
Sun 01/14 11:00pm 11 14 mph 1027.7mb 60f 51f
10:00pm 9 11 mph 1027.5mb 60f 51f
9:00pm 9 10 mph 1026.7mb 61f 53f
8:00pm 8 9 mph 1026.1mb 61f 54f
7:00pm 6 7 mph 1025.6mb 61f 56f
6:00pm 9 10 mph 1025.2mb 61f 58f
5:00pm 13 16 mph 1025mb 62f 60f
4:00pm 7 10 mph 1025mb 62f 59f
3:00pm 17 21 mph 1025.3mb 62f 55f
2:00pm 20 22 mph 1025.9mb 61f 53f
1:00pm 18 21 mph 1027.2mb 61f 52f
12:00pm 10 13 mph 1028.2mb 61f 52f
11:00am 9 11 mph 1028.6mb 61f 49f
10:00am 14 17 mph 1028.4mb 60f 46f
9:00am 13 18 mph 1028.2mb 60f 42f
8:00am 11 17 mph 1027.7mb 60f 40f
7:00am 11 15 mph 1027.5mb 60f 40f
6:00am 13 15 mph 1027.2mb 60f 41f
5:00am 13 15 mph 1026.8mb 61f 42f
4:00am 11 13 mph 1026.5mb 61f 42f
3:00am 11 16 mph 1026.2mb 61f 43f
2:00am 13 16 mph 1026.5mb 61f 45f
1:00am 8 9 mph 1026.9mb 62f 46f
12:00am 16 22 mph 1027.2mb 62f 47f
Sat 01/13 11:00pm 15 20 mph 1026.8mb 62f 49f
10:00pm 15 17 mph 1026.3mb 62f 49f
9:00pm 10 13 mph 1025.6mb 62f 50f
8:00pm 15 18 mph 1024.8mb 63f 51f
7:00pm 20 23 mph 1023.9mb 63f 52f
6:00pm 22 25 mph 1023mb 63f 53f
5:00pm 25 29 mph 1022.1mb 63f 55f
4:00pm 25 29 mph 1021.2mb 63f 56f
3:00pm 26 31 mph 1020.7mb 63f 56f
2:00pm 24 28 mph 1020.7mb 63f 57f
1:00pm 25 30 mph 1021mb 63f 57f
12:00pm 24 26 mph 1021.4mb 63f 58f
11:00am 22 25 mph 1021.4mb 63f 60f
10:00am 17 18 mph 1021.2mb 63f 60f